KRIC/RIC METAR and TAF weather

Enter ICAO airport designator
Station Type Date Time Source
KRIC METAR 2021/05/14 07:54 UTC NOAA

KRIC 140754Z 00000KT 10SM CLR 07/04 A3024 RMK AO2 SLP245 T00720039


Station Type Date Time Source
KRIC Decoded METAR 2021/05/14 07:54 UTC NOAA

RICHMOND INTERNATIONAL AIRPORT, VA, United States (KRIC) 37-31N 077-19W 50M
May 14, 2021 - 03:54 AM EDT / 2021.05.14 0754 UTC
Wind: Calm:0
Visibility: 10 mile(s):0
Sky conditions: clear
Temperature: 45.0 F (7.2 C)
Dew Point: 39.0 F (3.9 C)
Relative Humidity: 79%
Pressure (altimeter): 30.24 in. Hg (1024 hPa)
ob: KRIC 140754Z 00000KT 10SM CLR 07/04 A3024 RMK AO2 SLP245 T00720039
cycle: 8

Station Type Date Time Source
KRIC TAF 2021/05/14 06:36 UTC NOAA

TAF KRIC 140534Z 1406/1506 00000KT P6SM SKC
FM141600 36006KT P6SM BKN090
FM150000 VRB04KT P6SM SCT150

Example: see airport list